createdAt,value
2022-08-02T00:00:36.065Z,18.40
2022-08-02T00:03:04.131Z,18.50
2022-08-02T00:05:32.382Z,18.30
2022-08-02T00:08:00.495Z,18.20
2022-08-02T00:10:30.476Z,18.10
2022-08-02T00:12:58.811Z,18.20
2022-08-02T00:15:28.372Z,18.10
2022-08-02T00:17:56.726Z,18.00
2022-08-02T00:20:24.814Z,18.00
2022-08-02T00:22:52.905Z,17.90
2022-08-02T00:25:21.058Z,17.60
2022-08-02T00:27:49.490Z,17.00
2022-08-02T00:30:17.843Z,16.70
2022-08-02T00:32:47.247Z,16.40
2022-08-02T00:35:15.581Z,16.20
2022-08-02T00:37:43.686Z,16.10
2022-08-02T00:40:13.112Z,15.90
2022-08-02T00:42:41.954Z,15.80
2022-08-02T00:45:11.079Z,15.60
2022-08-02T00:47:39.127Z,15.60
2022-08-02T00:50:09.299Z,15.50
2022-08-02T00:52:37.734Z,15.50
2022-08-02T00:55:06.694Z,15.40
2022-08-02T00:57:34.783Z,15.30
2022-08-02T01:00:02.891Z,15.30
2022-08-02T01:02:31.275Z,15.30
2022-08-02T01:04:59.310Z,15.20
2022-08-02T01:07:28.811Z,15.10
2022-08-02T01:09:57.194Z,15.10
2022-08-02T01:12:25.294Z,15.10
2022-08-02T01:14:55.571Z,15.10
2022-08-02T01:17:30.343Z,15.00
2022-08-02T01:20:07.412Z,15.00
2022-08-02T01:23:01.891Z,15.00
2022-08-02T01:25:54.688Z,15.00
2022-08-02T01:28:39.324Z,15.00
2022-08-02T01:31:15.681Z,14.90
2022-08-02T01:33:49.029Z,14.80
2022-08-02T01:36:19.879Z,14.80
2022-08-02T01:38:51.194Z,14.70
2022-08-02T01:41:22.782Z,14.60
2022-08-02T01:43:55.539Z,14.50
2022-08-02T01:46:25.448Z,14.50
2022-08-02T01:48:55.913Z,14.30
2022-08-02T01:51:39.899Z,14.20
2022-08-02T01:54:11.439Z,14.10
2022-08-02T01:56:40.422Z,14.10
2022-08-02T01:59:12.637Z,14.20
2022-08-02T02:01:41.775Z,14.10
2022-08-02T02:04:11.088Z,14.00
2022-08-02T02:06:41.387Z,14.10
2022-08-02T02:09:10.277Z,14.00
2022-08-02T02:12:11.941Z,14.00
2022-08-02T02:14:30.956Z,13.90
2022-08-02T02:17:01.004Z,13.90
2022-08-02T02:19:30.222Z,13.80
2022-08-02T02:21:59.046Z,13.70
2022-08-02T02:24:27.756Z,13.60
2022-08-02T02:26:56.860Z,13.60
2022-08-02T02:29:29.785Z,13.70
2022-08-02T02:31:59.700Z,13.70
2022-08-02T02:34:30.174Z,13.60
2022-08-02T02:37:02.097Z,13.60
2022-08-02T02:39:31.425Z,13.60
2022-08-02T02:42:04.170Z,13.60
2022-08-02T02:44:36.070Z,13.60
2022-08-02T02:47:04.923Z,13.50
2022-08-02T02:49:36.201Z,13.50
2022-08-02T02:52:06.825Z,13.50
2022-08-02T02:54:37.762Z,13.50
2022-08-02T02:57:07.405Z,13.40
2022-08-02T02:59:42.459Z,13.40
2022-08-02T03:02:18.824Z,13.40
2022-08-02T03:04:57.206Z,13.40
2022-08-02T03:07:26.774Z,13.40
2022-08-02T03:09:55.285Z,13.30
2022-08-02T03:12:31.231Z,13.20
2022-08-02T03:15:04.115Z,13.00
2022-08-02T03:17:43.471Z,12.80
2022-08-02T03:20:14.135Z,12.60
2022-08-02T03:22:42.414Z,12.40
2022-08-02T03:25:12.176Z,12.50
2022-08-02T03:27:40.903Z,12.40
2022-08-02T03:30:12.730Z,12.50
2022-08-02T03:32:44.034Z,12.60
2022-08-02T03:35:19.875Z,12.70
2022-08-02T03:37:53.380Z,12.70
2022-08-02T03:40:22.070Z,12.60
2022-08-02T03:42:51.904Z,12.50
2022-08-02T03:45:22.004Z,12.50
2022-08-02T03:47:50.747Z,12.60
2022-08-02T03:50:22.878Z,12.70
2022-08-02T03:52:52.198Z,12.70
2022-08-02T03:55:20.475Z,12.60
2022-08-02T03:57:49.483Z,12.70
2022-08-02T04:00:21.797Z,12.80
2022-08-02T04:02:50.985Z,12.80
2022-08-02T04:05:19.821Z,12.90
2022-08-02T04:08:33.472Z,13.00
2022-08-02T04:10:51.773Z,13.00
2022-08-02T04:13:26.427Z,13.00
2022-08-02T04:16:02.911Z,13.20
2022-08-02T04:18:35.620Z,13.20
2022-08-02T04:21:05.944Z,13.20
2022-08-02T04:23:36.334Z,13.10
2022-08-02T04:26:05.641Z,13.20
2022-08-02T04:28:37.626Z,13.20
2022-08-02T04:31:07.916Z,13.10
2022-08-02T04:33:36.915Z,13.20
2022-08-02T04:36:07.278Z,13.30
2022-08-02T04:38:35.373Z,13.40
2022-08-02T04:41:03.554Z,13.60
2022-08-02T04:43:31.616Z,13.70
2022-08-02T04:46:02.772Z,13.80
2022-08-02T04:48:32.639Z,13.90
2022-08-02T04:51:01.057Z,14.00
2022-08-02T04:53:29.207Z,14.10
2022-08-02T04:55:57.292Z,14.10
2022-08-02T04:58:41.100Z,14.10
2022-08-02T05:01:09.365Z,13.80
2022-08-02T05:03:38.991Z,13.90
2022-08-02T05:06:18.975Z,13.70
2022-08-02T05:08:52.848Z,13.50
2022-08-02T05:11:21.904Z,13.80
2022-08-02T05:13:58.616Z,14.00
2022-08-02T05:16:31.422Z,14.00
2022-08-02T05:19:02.224Z,14.00
2022-08-02T05:21:31.379Z,13.90
2022-08-02T05:23:59.819Z,13.80
2022-08-02T05:26:28.128Z,14.20
2022-08-02T05:28:56.207Z,14.10
2022-08-02T05:31:24.340Z,13.90
2022-08-02T05:33:52.739Z,14.10
2022-08-02T05:36:22.204Z,14.40
2022-08-02T05:38:51.124Z,15.10
2022-08-02T05:41:19.722Z,15.40
2022-08-02T05:43:47.884Z,15.50
2022-08-02T05:46:16.417Z,16.10
2022-08-02T05:48:45.715Z,16.60
2022-08-02T05:51:22.669Z,16.30
2022-08-02T05:53:59.275Z,17.20
2022-08-02T05:56:34.245Z,17.10
2022-08-02T05:59:06.016Z,17.20
2022-08-02T06:01:36.797Z,18.00
2022-08-02T06:04:08.478Z,17.60
2022-08-02T06:06:38.368Z,18.10
2022-08-02T06:09:12.067Z,17.80
2022-08-02T06:11:43.450Z,18.10
2022-08-02T06:14:32.937Z,18.00
2022-08-02T06:17:02.021Z,18.80
2022-08-02T06:19:51.001Z,19.20
2022-08-02T06:22:35.897Z,18.90
2022-08-02T06:25:11.729Z,19.60
2022-08-02T06:27:56.393Z,19.50
2022-08-02T06:30:24.661Z,18.60
2022-08-02T06:32:53.625Z,19.70
2022-08-02T06:35:22.220Z,20.40
2022-08-02T06:37:58.671Z,21.00
2022-08-02T06:40:32.492Z,20.40
2022-08-02T06:43:13.305Z,20.70
2022-08-02T06:45:42.269Z,19.90
2022-08-02T06:48:11.583Z,20.00
2022-08-02T06:50:42.010Z,20.30
2022-08-02T06:53:11.519Z,19.60
2022-08-02T06:55:44.142Z,19.70
2022-08-02T06:58:13.115Z,19.90
2022-08-02T07:00:41.851Z,20.40
2022-08-02T07:03:10.269Z,19.80
2022-08-02T07:05:38.862Z,19.90
2022-08-02T07:08:07.215Z,21.20
2022-08-02T07:10:35.381Z,20.30
2022-08-02T07:13:04.847Z,20.80
2022-08-02T07:15:32.995Z,21.10
2022-08-02T07:18:01.344Z,19.90
2022-08-02T07:20:29.715Z,21.20
2022-08-02T07:22:57.805Z,20.80
2022-08-02T07:25:26.032Z,21.00
2022-08-02T07:28:23.713Z,22.00
2022-08-02T07:30:52.905Z,21.80
2022-08-02T07:33:39.001Z,21.00
2022-08-02T07:36:09.724Z,21.50
2022-08-02T07:38:45.615Z,22.90
2022-08-02T07:41:14.095Z,22.20
2022-08-02T07:43:43.567Z,22.40
2022-08-02T07:46:12.069Z,22.30
2022-08-02T07:48:40.088Z,21.30
2022-08-02T07:51:08.115Z,22.30
2022-08-02T07:53:51.259Z,23.50
2022-08-02T07:56:19.988Z,24.20
2022-08-02T07:58:49.647Z,22.90
2022-08-02T08:01:18.629Z,22.80
2022-08-02T08:03:47.032Z,24.80
2022-08-02T08:06:15.147Z,25.30
2022-08-02T08:08:44.416Z,23.40
2022-08-02T08:11:12.642Z,23.10
2022-08-02T08:13:41.172Z,24.40
2022-08-02T08:16:10.581Z,25.30
2022-08-02T08:18:38.718Z,26.00
2022-08-02T08:21:07.298Z,25.80
2022-08-02T08:23:35.440Z,25.50
2022-08-02T08:26:04.103Z,25.30
2022-08-02T08:28:32.372Z,24.90
2022-08-02T08:31:00.541Z,25.00
2022-08-02T08:33:29.963Z,24.80
2022-08-02T08:35:58.558Z,25.20
2022-08-02T08:38:26.806Z,25.60
2022-08-02T08:40:56.912Z,26.00
2022-08-02T08:43:25.019Z,25.90
2022-08-02T08:45:56.371Z,26.70
2022-08-02T08:48:31.221Z,27.50
2022-08-02T08:51:08.193Z,26.80
2022-08-02T08:53:41.673Z,26.40
2022-08-02T08:56:15.925Z,26.80
2022-08-02T08:58:45.668Z,27.20
2022-08-02T09:01:14.585Z,27.10
2022-08-02T09:03:42.662Z,27.10
2022-08-02T09:06:12.351Z,27.20
2022-08-02T09:08:40.456Z,26.30
2022-08-02T09:11:15.584Z,25.10
2022-08-02T09:13:51.620Z,25.30
2022-08-02T09:16:33.519Z,25.70
2022-08-02T09:19:02.605Z,26.50
2022-08-02T09:21:38.790Z,25.20
2022-08-02T09:24:18.915Z,25.90
2022-08-02T09:26:47.980Z,24.40
2022-08-02T09:29:16.754Z,25.70
2022-08-02T09:31:49.614Z,27.20
2022-08-02T09:34:19.737Z,27.20
2022-08-02T09:36:54.338Z,27.00
2022-08-02T09:39:26.415Z,27.30
2022-08-02T09:42:10.590Z,27.60
2022-08-02T09:44:39.094Z,28.30
2022-08-02T09:47:16.905Z,28.60
2022-08-02T09:49:52.656Z,28.30
2022-08-02T09:52:43.050Z,28.10
2022-08-02T09:55:12.516Z,28.00
2022-08-02T09:57:41.375Z,28.40
2022-08-02T10:00:16.175Z,28.70
2022-08-02T10:03:07.473Z,28.60
2022-08-02T10:05:53.993Z,29.50
2022-08-02T10:08:26.468Z,29.00
2022-08-02T10:11:00.655Z,29.00
2022-08-02T10:13:30.837Z,28.40
2022-08-02T10:15:59.481Z,27.50
2022-08-02T10:18:42.774Z,28.30
2022-08-02T10:21:18.106Z,28.00
2022-08-02T10:23:49.976Z,28.10
2022-08-02T10:26:20.188Z,28.40
2022-08-02T10:28:49.610Z,29.10
2022-08-02T10:31:25.365Z,29.20
2022-08-02T10:33:55.201Z,29.40
2022-08-02T10:36:27.207Z,27.80
2022-08-02T10:38:58.677Z,28.40
2022-08-02T10:41:48.597Z,29.40
2022-08-02T10:44:38.226Z,28.40
2022-08-02T10:47:24.985Z,28.30
2022-08-02T10:49:54.730Z,29.30
2022-08-02T10:52:24.171Z,29.30
2022-08-02T10:54:57.344Z,29.80
2022-08-02T10:57:28.081Z,29.40
2022-08-02T10:59:58.624Z,28.50
2022-08-02T11:02:39.677Z,29.40
2022-08-02T11:05:18.428Z,30.00
2022-08-02T11:07:49.631Z,30.40
2022-08-02T11:10:41.185Z,29.90
2022-08-02T11:13:15.122Z,29.00
2022-08-02T11:15:51.779Z,29.30
2022-08-02T11:18:20.582Z,29.50
2022-08-02T11:20:49.054Z,30.10
2022-08-02T11:23:45.029Z,30.40
2022-08-02T11:26:46.142Z,30.70
2022-08-02T11:29:15.998Z,29.90
2022-08-02T11:31:46.539Z,29.40
2022-08-02T11:34:36.449Z,29.50
2022-08-02T11:37:04.596Z,30.30
2022-08-02T11:39:32.648Z,29.10
2022-08-02T11:42:02.330Z,29.50
2022-08-02T11:44:31.749Z,29.50
2022-08-02T11:47:03.072Z,29.60
2022-08-02T11:49:31.456Z,30.10
2022-08-02T11:52:05.588Z,30.70
2022-08-02T11:54:35.719Z,29.00
2022-08-02T11:57:20.847Z,28.10
2022-08-02T11:59:51.025Z,29.90
2022-08-02T12:02:20.694Z,30.60
2022-08-02T12:04:57.996Z,31.10
2022-08-02T12:07:35.153Z,31.50
2022-08-02T12:10:06.620Z,31.50
2022-08-02T12:12:48.887Z,31.40
2022-08-02T12:15:31.283Z,31.20
2022-08-02T12:18:17.590Z,30.90
2022-08-02T12:20:46.491Z,31.40
2022-08-02T12:23:14.886Z,31.10
2022-08-02T12:25:43.425Z,31.30
2022-08-02T12:28:18.575Z,31.30
2022-08-02T12:30:55.446Z,31.30
2022-08-02T12:33:24.280Z,30.90
2022-08-02T12:35:52.714Z,31.30
2022-08-02T12:38:21.142Z,31.20
2022-08-02T12:40:49.853Z,31.20
2022-08-02T12:43:21.300Z,31.30
2022-08-02T12:45:51.715Z,31.20
2022-08-02T12:48:37.558Z,31.40
2022-08-02T12:51:21.495Z,31.80
2022-08-02T12:53:59.394Z,31.70
2022-08-02T12:56:30.493Z,31.30
2022-08-02T12:59:00.393Z,31.20
2022-08-02T13:01:30.260Z,31.40
2022-08-02T13:04:11.415Z,31.60
2022-08-02T13:06:44.571Z,31.70
2022-08-02T13:09:15.569Z,30.80
2022-08-02T13:11:44.549Z,30.80
2022-08-02T13:14:15.327Z,30.90
2022-08-02T13:16:45.419Z,30.90
2022-08-02T13:19:15.345Z,30.40
2022-08-02T13:22:02.707Z,30.50
2022-08-02T13:24:41.111Z,30.90
2022-08-02T13:27:22.353Z,29.20
2022-08-02T13:29:53.796Z,30.70
2022-08-02T13:32:22.648Z,30.90
2022-08-02T13:34:51.507Z,31.70
2022-08-02T13:37:19.722Z,31.50
2022-08-02T13:40:11.700Z,31.50
2022-08-02T13:42:36.567Z,31.50
2022-08-02T13:45:12.134Z,31.50
2022-08-02T13:48:04.884Z,31.90
2022-08-02T13:50:30.368Z,31.00
2022-08-02T13:52:58.440Z,28.60
2022-08-02T13:55:26.500Z,30.00
2022-08-02T13:57:54.665Z,31.40
2022-08-02T14:00:35.246Z,31.30
2022-08-02T14:03:05.693Z,31.50
2022-08-02T14:05:39.160Z,31.70
2022-08-02T14:08:16.853Z,31.70
2022-08-02T14:10:45.487Z,31.70
2022-08-02T14:13:13.539Z,31.00
2022-08-02T14:15:43.826Z,31.20
2022-08-02T14:18:12.114Z,31.20
2022-08-02T14:20:40.113Z,31.20
2022-08-02T14:23:08.396Z,31.00
2022-08-02T14:25:36.484Z,31.40
2022-08-02T14:28:05.085Z,31.00
2022-08-02T14:30:33.238Z,31.30
2022-08-02T14:33:04.380Z,31.50
2022-08-02T14:35:33.046Z,30.90
2022-08-02T14:38:01.199Z,30.60
2022-08-02T14:40:31.798Z,30.50
2022-08-02T14:43:01.205Z,31.00
2022-08-02T14:45:40.367Z,31.00
2022-08-02T14:48:11.251Z,30.70
2022-08-02T14:50:39.393Z,30.60
2022-08-02T14:53:12.136Z,30.60
2022-08-02T14:55:41.819Z,30.70
2022-08-02T14:58:10.031Z,30.80
2022-08-02T15:00:40.871Z,31.00
2022-08-02T15:03:11.305Z,31.00
2022-08-02T15:05:39.425Z,30.30
2022-08-02T15:08:08.009Z,29.80
2022-08-02T15:10:36.422Z,30.10
2022-08-02T15:13:04.664Z,30.30
2022-08-02T15:15:42.228Z,30.40
2022-08-02T15:18:14.088Z,30.00
2022-08-02T15:20:45.388Z,30.10
2022-08-02T15:23:25.909Z,30.10
2022-08-02T15:26:06.304Z,29.80
2022-08-02T15:28:34.651Z,30.30
2022-08-02T15:31:02.829Z,30.60
2022-08-02T15:33:32.252Z,30.50
2022-08-02T15:36:00.451Z,30.50
2022-08-02T15:38:28.858Z,30.80
2022-08-02T15:40:56.931Z,30.50
2022-08-02T15:43:25.377Z,30.40
2022-08-02T15:45:53.959Z,30.10
2022-08-02T15:48:22.225Z,30.00
2022-08-02T15:50:51.773Z,30.20
2022-08-02T15:53:20.198Z,30.10
2022-08-02T15:56:04.322Z,30.40
2022-08-02T15:58:36.175Z,30.10
2022-08-02T16:01:12.726Z,30.50
2022-08-02T16:03:41.016Z,30.10
2022-08-02T16:06:10.426Z,30.10
2022-08-02T16:08:38.737Z,29.90
2022-08-02T16:11:13.534Z,29.80
2022-08-02T16:13:59.013Z,30.00
2022-08-02T16:16:31.998Z,30.00
2022-08-02T16:19:46.006Z,30.10
2022-08-02T16:21:50.906Z,30.10
2022-08-02T16:24:19.370Z,29.90
2022-08-02T16:26:47.471Z,29.70
2022-08-02T16:29:19.286Z,29.70
2022-08-02T16:31:47.732Z,29.50
2022-08-02T16:34:15.975Z,29.90
2022-08-02T16:36:44.275Z,29.70
2022-08-02T16:39:13.776Z,29.50
2022-08-02T16:41:50.322Z,29.70
2022-08-02T16:44:26.733Z,29.50
2022-08-02T16:47:00.863Z,29.60
2022-08-02T16:50:04.901Z,29.60
2022-08-02T16:52:18.949Z,29.10
2022-08-02T16:54:49.561Z,29.40
2022-08-02T16:57:19.842Z,29.20
2022-08-02T16:59:57.223Z,29.10
2022-08-02T17:02:26.752Z,29.20
2022-08-02T17:04:56.776Z,29.30
2022-08-02T17:08:06.045Z,29.40
2022-08-02T17:10:14.850Z,29.50
2022-08-02T17:12:51.220Z,29.30
2022-08-02T17:16:01.123Z,29.40
2022-08-02T17:18:08.813Z,29.00
2022-08-02T17:20:37.629Z,29.10
2022-08-02T17:23:05.697Z,29.20
2022-08-02T17:25:38.772Z,29.10
2022-08-02T17:28:10.118Z,29.00
2022-08-02T17:30:38.527Z,28.90
2022-08-02T17:33:07.163Z,29.00
2022-08-02T17:35:43.425Z,29.00
2022-08-02T17:38:26.078Z,28.80
2022-08-02T17:40:56.825Z,28.90
2022-08-02T17:43:25.988Z,28.90
2022-08-02T17:46:01.113Z,28.80
2022-08-02T17:48:54.915Z,28.80
2022-08-02T17:51:33.229Z,28.80
2022-08-02T17:54:12.324Z,28.80
2022-08-02T17:56:42.911Z,28.80
2022-08-02T17:59:20.578Z,28.90
2022-08-02T18:01:53.005Z,28.70
2022-08-02T18:04:27.714Z,28.70
2022-08-02T18:06:59.006Z,28.70
2022-08-02T18:09:32.905Z,28.60
2022-08-02T18:12:04.042Z,28.50
2022-08-02T18:14:32.275Z,28.40
2022-08-02T18:17:00.747Z,28.10
2022-08-02T18:19:42.806Z,28.20
2022-08-02T18:22:17.065Z,28.20
2022-08-02T18:24:53.096Z,28.10
2022-08-02T18:27:22.879Z,28.00
2022-08-02T18:30:00.046Z,28.00
2022-08-02T18:33:55.283Z,28.00
2022-08-02T18:35:20.882Z,28.00
2022-08-02T18:37:56.875Z,27.90
2022-08-02T18:40:25.820Z,27.90
2022-08-02T18:42:55.627Z,27.80
2022-08-02T18:45:23.636Z,27.60
2022-08-02T18:47:51.725Z,27.50
2022-08-02T18:50:20.787Z,27.40
2022-08-02T18:52:49.140Z,26.90
2022-08-02T18:58:18.016Z,26.60
2022-08-02T19:00:47.968Z,26.40
2022-08-02T19:03:20.258Z,26.30
2022-08-02T19:05:52.403Z,26.30
2022-08-02T19:08:25.567Z,26.20
2022-08-02T19:10:55.162Z,26.10
2022-08-02T19:13:25.853Z,25.90
2022-08-02T19:15:54.562Z,25.50
2022-08-02T19:18:26.984Z,25.30
2022-08-02T19:21:03.210Z,25.40
2022-08-02T19:23:33.925Z,25.40
2022-08-02T19:26:03.147Z,25.20
2022-08-02T19:28:33.443Z,25.30
2022-08-02T19:31:01.962Z,25.30
2022-08-02T19:34:04.778Z,25.30
2022-08-02T19:36:19.078Z,25.20
2022-08-02T19:38:49.030Z,25.20
2022-08-02T19:41:17.917Z,25.30
2022-08-02T19:44:26.417Z,25.30
2022-08-02T19:46:41.531Z,25.30
2022-08-02T19:49:16.448Z,25.30
2022-08-02T19:51:54.727Z,25.30
2022-08-02T19:54:54.383Z,25.20
2022-08-02T19:57:17.031Z,25.00
2022-08-02T19:59:49.696Z,24.80
2022-08-02T20:02:18.476Z,24.60
2022-08-02T20:04:50.199Z,24.60
2022-08-02T20:07:54.317Z,24.60
2022-08-02T20:10:11.583Z,24.40
2022-08-02T20:12:40.398Z,24.20
2022-08-02T20:15:14.936Z,24.00
2022-08-02T20:17:47.568Z,24.20
2022-08-02T20:20:17.725Z,24.20
2022-08-02T20:23:32.120Z,24.20
2022-08-02T20:25:54.080Z,24.30
2022-08-02T20:28:23.133Z,24.20
2022-08-02T20:30:52.535Z,24.00
2022-08-02T20:33:23.675Z,23.90
2022-08-02T20:35:53.308Z,23.70
2022-08-02T20:38:25.058Z,23.70
2022-08-02T20:40:57.983Z,23.60
2022-08-02T20:43:31.517Z,23.60
2022-08-02T20:46:05.510Z,23.50
2022-08-02T20:48:33.645Z,23.50
2022-08-02T20:51:00.896Z,23.30
2022-08-02T20:53:56.057Z,23.20
2022-08-02T20:56:24.711Z,23.10
2022-08-02T20:58:53.933Z,23.10
2022-08-02T21:01:36.767Z,23.00
2022-08-02T21:04:05.437Z,22.80
2022-08-02T21:06:34.398Z,22.90
2022-08-02T21:09:06.811Z,22.90
2022-08-02T21:11:34.925Z,23.00
2022-08-02T21:14:08.832Z,22.90
2022-08-02T21:16:38.985Z,22.90
2022-08-02T21:19:09.826Z,22.80
2022-08-02T21:21:38.458Z,22.90
2022-08-02T21:24:06.958Z,23.00
2022-08-02T21:26:40.880Z,23.10
2022-08-02T21:29:10.403Z,23.20
2022-08-02T21:31:43.521Z,23.20
2022-08-02T21:34:26.782Z,23.10
2022-08-02T21:36:55.563Z,23.10
2022-08-02T21:39:24.332Z,23.10
2022-08-02T21:41:52.470Z,23.00
2022-08-02T21:44:22.395Z,23.00
2022-08-02T21:46:53.758Z,22.80
2022-08-02T21:49:40.566Z,22.80
2022-08-02T21:52:11.676Z,22.70
2022-08-02T21:54:40.759Z,22.70
2022-08-02T21:57:15.686Z,22.60
2022-08-02T21:59:45.928Z,22.20
2022-08-02T22:02:16.897Z,22.20
2022-08-02T22:04:47.346Z,22.20
2022-08-02T22:07:17.339Z,22.30
2022-08-02T22:09:52.030Z,22.20
2022-08-02T22:12:25.951Z,22.30
2022-08-02T22:14:56.432Z,22.40
2022-08-02T22:17:51.192Z,22.40
2022-08-02T22:20:20.449Z,22.20
2022-08-02T22:22:50.422Z,22.00
2022-08-02T22:25:21.712Z,22.20
2022-08-02T22:28:37.715Z,22.10
2022-08-02T22:30:54.791Z,22.00
2022-08-02T22:33:47.331Z,22.10
2022-08-02T22:36:30.462Z,22.30
2022-08-02T22:38:58.644Z,22.30
2022-08-02T22:42:00.091Z,22.50
2022-08-02T22:44:16.861Z,22.40
2022-08-02T22:46:49.941Z,22.50
2022-08-02T22:49:38.595Z,22.40
2022-08-02T22:52:08.554Z,22.30
2022-08-02T22:54:39.170Z,22.30
2022-08-02T22:57:11.425Z,22.30
2022-08-02T22:58:46.033Z,26.80
2022-08-02T22:59:40.832Z,22.30
2022-08-02T23:02:09.622Z,22.40
2022-08-02T23:04:39.371Z,22.30
2022-08-02T23:07:07.523Z,22.40
2022-08-02T23:09:35.943Z,22.40
2022-08-02T23:12:04.406Z,22.40
2022-08-02T23:14:32.586Z,22.40
2022-08-02T23:17:18.153Z,22.50
2022-08-02T23:19:53.318Z,22.40
2022-08-02T23:22:29.376Z,22.50
2022-08-02T23:25:00.787Z,22.50
2022-08-02T23:27:29.256Z,22.40
2022-08-02T23:29:57.839Z,22.30
2022-08-02T23:32:26.267Z,22.20
2022-08-02T23:34:56.880Z,22.20
2022-08-02T23:37:25.271Z,22.10
2022-08-02T23:39:53.466Z,22.00
2022-08-02T23:42:23.343Z,21.90
2022-08-02T23:44:51.534Z,21.90
2022-08-02T23:47:20.186Z,22.00
2022-08-02T23:49:48.912Z,22.10
2022-08-02T23:52:19.125Z,22.10
2022-08-02T23:54:47.471Z,22.10
2022-08-02T23:57:20.743Z,22.10
2022-08-02T23:59:50.559Z,22.10
